Burgin, KY (40310)

01:23 AM EDT del 31 Marzo 2015 (GMT -0400)
Powell | | Change Station
CLOSE
Current Station
Aeroporto
Location: Danville,
Altitudine: 1024 ft
Stazioni meteo nelle vicinanze

Alt. 1024 ft 37.58 °N, 84.77 °W | Updated 8 minutes ago

Parzialmente nuvoloso
Parzialmente nuvoloso
37 °F
Sembra 37 °F
N
0
Vento Variabile Vento da Nord

Oggi
Massima -- | Minima -- °F
--% Possibilità di precip.
Ieri
Massima -- | Minima -- °F
Precip. -- in
7:26 AM 8:00 PM
Gobba a ponente, 84% visible
Pressione 30.07 in
Visibilità 10.0 miglia
Nuvole Sereno
Punto di rugiada 30 °F
Umidità 75%
Piovosità 0.00 in
Spessore del manto nevoso Non disponibile.
Raggi UV 0 fuori da 12
Polline 9.60 fuori da 12
Qualità dell'aria Non disponibile.
Flu Activity Non disponibile.
METAR KDVK 310515Z AUTO 00000KT 10SM CLR 03/M01 A3007 RMK AO2

More Conditions Fewer Conditions

Pressione 30.07 in
Visibilità 10.0 miglia
Nuvole Sereno
Punto di rugiada 30 °F
Umidità 75%
Piovosità 0.00 in
Spessore del manto nevoso Non disponibile.
Raggi UV 0 fuori da 12
Polline 9.60 fuori da 12
Qualità dell'aria Non disponibile.
Flu Activity Non disponibile.
METAR KDVK 310515Z AUTO 00000KT 10SM CLR 03/M01 A3007 RMK AO2

More Conditions Fewer Conditions

10-Day Weather Forecast

Almanac

Astronomia

Mar. 31, 2015 Alba Tramonto
Ora attuale
Crepuscolo civile
Crepuscolo nautico
Crepuscolo astronomico
Luna
Estensione della luce visibile
Lunghezza del giorno
Tomorrow will be .
, % of the Moon is Illuminated

Gli estremi di oggi

State Highs State Lows

Community

WunderPhotos

Upload Photos

1,809,722 foto caricate!

WunderBlogs® & News

Nearby

Qualità dell'aria

  Qualità dell'aria Indice AQ Inquinante
Not available.

Profondità neve

Stazione Profondità Altitudine

Attività sismica

Città  Distanza Mag. Data & Ora
Minimo Magnitudo Mostrato è 2.5.

Temperature delle acque costiere

Località Temperatura

Stations

Stazioni meteo nelle vicinanze

Ubicazione della stazione Temp. Raffreddamento del vento Punto di rugiada Umidità Vento Precip. Alt. Aggiornato Tipo